Terminal Aerodrome Forecast
Issued by NWS

Home | Current Version | Previous Version | Text Only | Print | Product List | Glossary On
Versions: 1 2 3 4 5 6 7 8 9 10 11 12 13 14 15 16 17 18 19 20 21 22 23 24 25 26 27 28 29 30 31 32
411
FTUS41 KOKX 261136
TAFHPN
TAF
KHPN 261136Z 2612/2712 30010KT P6SM SCT040
      TEMPO 2612/2614 31016G24KT BKN040
     FM261400 29015G23KT P6SM BKN045
     FM262300 28011G19KT P6SM FEW035
     FM270100 28007KT P6SM SKC
     FM270600 VRB04KT P6SM SKC
      AMD NOT SKED=

USA.gov is the U.S. government's official web portal to all federal, state and local government web resources and services.